Time;durP1;ratioP1;P1;durP2;ratioP2;P2;SDS_P1;SDS_P2;PMS_P1;PMS_P2;Temp;Humidity;BMP_temperature;BMP_pressure;BME280_temperature;BME280_humidity;BME280_pressure;Samples;Min_cycle;Max_cycle;Signal;HPM_P1;HPM_P2
2023/03/12 00:02:13;;;;;;;;;;;;;;;;;;5075024;28;19979;-73
2023/03/12 00:04:39;;;;;;;;;;;;;;;;;;5074564;28;19927;-74
2023/03/12 00:07:05;;;;;;;;;;;;;;;;;;5074825;28;19915;-72
2023/03/12 00:09:31;;;;;;;;;;;;;;;;;;5073301;28;20011;-75
2023/03/12 00:11:57;;;;;;;;;;;;;;;;;;5074700;28;19936;-73
2023/03/12 00:14:23;;;;;;;;;;;;;;;;;;5074746;28;20282;-72
2023/03/12 00:16:49;;;;;;;;;;;;;;;;;;5074282;28;20386;-73
2023/03/12 00:19:15;;;;;;;;;;;;;;;;;;5074117;28;19909;-73
2023/03/12 00:21:40;;;;;;;;;;;;;;;;;;5074530;28;19909;-74
2023/03/12 00:24:07;;;;;;;;;;;;;;;;;;5074368;28;19969;-73
2023/03/12 00:26:32;;;;;;;;;;;;;;;;;;5073172;28;19908;-73
2023/03/12 00:28:58;;;;;;;;;;;;;;;;;;5072546;28;19916;-74
2023/03/12 00:31:26;;;;;;;;;;;;;;;;;;5074395;28;19908;-73
2023/03/12 00:33:52;;;;;;;;;;;;;;;;;;5074295;28;19916;-73
2023/03/12 00:36:18;;;;;;;;;;;;;;;;;;5074249;28;19908;-73
2023/03/12 00:38:44;;;;;;;;;;;;;;;;;;5072364;28;19954;-73
2023/03/12 00:41:09;;;;;;;;;;;;;;;;;;5073858;28;19966;-73
2023/03/12 00:43:35;;;;;;;;;;;;;;;;;;5074158;28;19908;-75
2023/03/12 00:46:01;;;;;;;;;;;;;;;;;;5072702;28;19908;-72
2023/03/12 00:48:27;;;;;;;;;;;;;;;;;;5073700;28;19912;-73
2023/03/12 00:50:53;;;;;;;;;;;;;;;;;;5073944;28;19908;-74
2023/03/12 00:53:19;;;;;;;;;;;;;;;;;;5073955;28;19915;-73
2023/03/12 00:55:45;;;;;;;;;;;;;;;;;;5073837;28;19915;-74
2023/03/12 00:58:11;;;;;;;;;;;;;;;;;;5073379;28;19908;-73
2023/03/12 01:00:37;;;;;;;;;;;;;;;;;;5073874;28;19919;-74
2023/03/12 01:03:03;;;;;;;;;;;;;;;;;;5073681;28;19940;-73
2023/03/12 01:05:29;;;;;;;;;;;;;;;;;;5073646;28;19919;-73
2023/03/12 01:07:55;;;;;;;;;;;;;;;;;;5073451;28;19922;-74
2023/03/12 01:10:20;;;;;;;;;;;;;;;;;;5073687;28;19923;-73
2023/03/12 01:12:46;;;;;;;;;;;;;;;;;;5072422;28;19920;-74
2023/03/12 01:15:12;;;;;;;;;;;;;;;;;;5073496;28;19909;-75
2023/03/12 01:17:38;;;;;;;;;;;;;;;;;;5072093;28;20019;-73
2023/03/12 01:20:04;;;;;;;;;;;;;;;;;;5073382;28;20337;-73
2023/03/12 01:22:30;;;;;;;;;;;;;;;;;;5073352;28;19935;-74
2023/03/12 01:24:56;;;;;;;;;;;;;;;;;;5073362;28;20327;-73
2023/03/12 01:27:22;;;;;;;;;;;;;;;;;;5073445;28;20433;-74
2023/03/12 01:29:48;;;;;;;;;;;;;;;;;;5073201;28;19987;-74
2023/03/12 01:32:15;;;;;;;;;;;;;;;;;;5073322;28;19961;-73
2023/03/12 01:34:41;;;;;;;;;;;;;;;;;;5073419;28;19909;-73
2023/03/12 01:37:07;;;;;;;;;;;;;;;;;;5073310;28;19931;-74
2023/03/12 01:39:33;;;;;;;;;;;;;;;;;;5072769;28;20421;-74
2023/03/12 01:42:00;;;;;;;;;;;;;;;;;;5072015;28;19962;-74
2023/03/12 01:44:26;;;;;;;;;;;;;;;;;;5073180;28;19920;-73
2023/03/12 01:46:52;;;;;;;;;;;;;;;;;;5073385;28;19931;-73
2023/03/12 01:49:18;;;;;;;;;;;;;;;;;;5072709;28;20338;-74
2023/03/12 01:51:44;;;;;;;;;;;;;;;;;;5073305;28;20381;-73
2023/03/12 01:54:10;;;;;;;;;;;;;;;;;;5073169;28;19916;-73
2023/03/12 01:56:36;;;;;;;;;;;;;;;;;;5073163;28;20143;-73
2023/03/12 01:59:02;;;;;;;;;;;;;;;;;;5072748;28;19908;-73
2023/03/12 02:01:28;;;;;;;;;;;;;;;;;;5073121;28;19909;-73
2023/03/12 02:03:54;;;;;;;;;;;;;;;;;;5071634;28;20040;-74
2023/03/12 02:06:20;;;;;;;;;;;;;;;;;;5072991;28;19908;-74
2023/03/12 02:08:45;;;;;;;;;;;;;;;;;;5072794;28;19909;-74
2023/03/12 02:11:11;;;;;;;;;;;;;;;;;;5073028;28;20288;-74
2023/03/12 02:13:37;;;;;;;;;;;;;;;;;;5072957;28;20375;-72
2023/03/12 02:16:03;;;;;;;;;;;;;;;;;;5072783;28;20331;-73
2023/03/12 02:18:29;;;;;;;;;;;;;;;;;;5072554;28;20380;-72
2023/03/12 02:20:55;;;;;;;;;;;;;;;;;;5073002;28;20357;-75
2023/03/12 02:23:21;;;;;;;;;;;;;;;;;;5072926;28;19908;-74
2023/03/12 02:25:47;;;;;;;;;;;;;;;;;;5072861;28;19908;-73
2023/03/12 02:28:13;;;;;;;;;;;;;;;;;;5071115;28;19909;-73
2023/03/12 02:30:39;;;;;;;;;;;;;;;;;;5072784;28;20003;-74
2023/03/12 02:33:05;;;;;;;;;;;;;;;;;;5074050;28;19967;-73
2023/03/12 02:35:31;;;;;;;;;;;;;;;;;;5076745;28;19913;-72
2023/03/12 02:37:56;;;;;;;;;;;;;;;;;;5076195;28;20007;-74
2023/03/12 02:40:22;;;;;;;;;;;;;;;;;;5076026;28;19920;-75
2023/03/12 02:42:48;;;;;;;;;;;;;;;;;;5075186;28;19908;-75
2023/03/12 02:45:14;;;;;;;;;;;;;;;;;;5075035;28;19966;-74
2023/03/12 02:47:40;;;;;;;;;;;;;;;;;;5076330;28;19909;-73
2023/03/12 02:50:06;;;;;;;;;;;;;;;;;;5076090;28;19919;-74
2023/03/12 02:52:35;;;;;;;;;;;;;;;;;;5075973;28;19908;-73
2023/03/12 02:55:00;;;;;;;;;;;;;;;;;;5076344;28;20431;-74
2023/03/12 02:57:26;;;;;;;;;;;;;;;;;;5076115;28;20019;-74
2023/03/12 02:59:52;;;;;;;;;;;;;;;;;;5075629;28;19916;-74
2023/03/12 03:02:18;;;;;;;;;;;;;;;;;;5076103;28;19909;-74
2023/03/12 03:04:44;;;;;;;;;;;;;;;;;;5075651;28;19917;-73
2023/03/12 03:07:10;;;;;;;;;;;;;;;;;;5076088;28;19909;-74
2023/03/12 03:09:36;;;;;;;;;;;;;;;;;;5075482;28;20385;-74
2023/03/12 03:12:02;;;;;;;;;;;;;;;;;;5074671;28;20402;-74
2023/03/12 03:14:28;;;;;;;;;;;;;;;;;;5075886;28;19985;-74
2023/03/12 03:16:54;;;;;;;;;;;;;;;;;;5075573;28;20030;-74
2023/03/12 03:19:20;;;;;;;;;;;;;;;;;;5075400;28;19909;-74
2023/03/12 03:21:46;;;;;;;;;;;;;;;;;;5075744;28;19916;-73
2023/03/12 03:24:11;;;;;;;;;;;;;;;;;;5075677;28;19913;-72
2023/03/12 03:26:38;;;;;;;;;;;;;;;;;;5075611;28;19908;-74
2023/03/12 03:29:04;;;;;;;;;;;;;;;;;;5073821;28;20358;-74
2023/03/12 03:31:29;;;;;;;;;;;;;;;;;;5075572;28;19951;-74
2023/03/12 03:33:55;;;;;;;;;;;;;;;;;;5075479;28;19931;-72
2023/03/12 03:36:22;;;;;;;;;;;;;;;;;;5075696;28;20265;-73
2023/03/12 03:38:49;;;;;;;;;;;;;;;;;;5074877;28;19966;-74
2023/03/12 03:41:15;;;;;;;;;;;;;;;;;;5073879;28;19915;-75
2023/03/12 03:43:41;;;;;;;;;;;;;;;;;;5074880;28;19913;-74
2023/03/12 03:46:07;;;;;;;;;;;;;;;;;;5075273;28;20388;-73
2023/03/12 03:48:33;;;;;;;;;;;;;;;;;;5074933;28;19908;-73
2023/03/12 03:50:59;;;;;;;;;;;;;;;;;;5075093;28;19909;-74
2023/03/12 03:53:24;;;;;;;;;;;;;;;;;;5073921;28;20381;-74
2023/03/12 03:55:50;;;;;;;;;;;;;;;;;;5075003;28;19916;-73
2023/03/12 03:58:16;;;;;;;;;;;;;;;;;;5074739;28;19919;-74
2023/03/12 04:00:42;;;;;;;;;;;;;;;;;;5074950;28;19908;-74
2023/03/12 04:03:08;;;;;;;;;;;;;;;;;;5074911;28;19931;-74
2023/03/12 04:05:34;;;;;;;;;;;;;;;;;;5074862;28;19970;-74
2023/03/12 04:08:02;;;;;;;;;;;;;;;;;;5074690;28;19952;-73
2023/03/12 04:10:28;;;;;;;;;;;;;;;;;;5074892;28;19909;-74
2023/03/12 04:12:53;;;;;;;;;;;;;;;;;;5074669;28;19995;-73
2023/03/12 04:15:19;;;;;;;;;;;;;;;;;;5074687;28;19958;-74
2023/03/12 04:17:45;;;;;;;;;;;;;;;;;;5074643;28;19955;-74
2023/03/12 04:20:11;;;;;;;;;;;;;;;;;;5074134;28;19916;-73
2023/03/12 04:22:37;;;;;;;;;;;;;;;;;;5074590;28;19995;-74
2023/03/12 04:25:03;;;;;;;;;;;;;;;;;;5074423;28;20013;-73
2023/03/12 04:27:29;;;;;;;;;;;;;;;;;;5074562;28;20268;-73
2023/03/12 04:29:55;;;;;;;;;;;;;;;;;;5073941;28;19909;-74
2023/03/12 04:32:21;;;;;;;;;;;;;;;;;;5074358;28;20390;-74
2023/03/12 04:34:47;;;;;;;;;;;;;;;;;;5074366;28;19912;-74
2023/03/12 04:37:13;;;;;;;;;;;;;;;;;;5074273;28;20017;-73
2023/03/12 04:39:39;;;;;;;;;;;;;;;;;;5073472;28;19959;-73
2023/03/12 04:42:05;;;;;;;;;;;;;;;;;;5072987;28;19917;-74
2023/03/12 04:44:30;;;;;;;;;;;;;;;;;;5074051;28;19912;-74
2023/03/12 04:46:56;;;;;;;;;;;;;;;;;;5074160;28;19935;-73
2023/03/12 04:49:22;;;;;;;;;;;;;;;;;;5073704;28;20372;-74
2023/03/12 04:51:48;;;;;;;;;;;;;;;;;;5074066;28;19908;-72
2023/03/12 04:54:14;;;;;;;;;;;;;;;;;;5074045;28;19960;-74
2023/03/12 04:56:40;;;;;;;;;;;;;;;;;;5073132;28;19916;-74
2023/03/12 04:59:06;;;;;;;;;;;;;;;;;;5073578;28;19909;-74
2023/03/12 05:01:32;;;;;;;;;;;;;;;;;;5073773;28;19909;-74
2023/03/12 05:03:58;;;;;;;;;;;;;;;;;;5073524;28;19913;-72
2023/03/12 05:06:24;;;;;;;;;;;;;;;;;;5073743;28;19909;-74
2023/03/12 05:08:50;;;;;;;;;;;;;;;;;;5073356;28;19909;-74
2023/03/12 05:11:16;;;;;;;;;;;;;;;;;;5073808;28;19944;-75
2023/03/12 05:13:42;;;;;;;;;;;;;;;;;;5073552;28;19931;-74
2023/03/12 05:16:07;;;;;;;;;;;;;;;;;;5072173;28;20284;-74
2023/03/12 05:18:33;;;;;;;;;;;;;;;;;;5073311;28;19963;-74
2023/03/12 05:20:59;;;;;;;;;;;;;;;;;;5073594;28;20426;-74
2023/03/12 05:23:25;;;;;;;;;;;;;;;;;;5073643;28;19908;-73
2023/03/12 05:25:51;;;;;;;;;;;;;;;;;;5073403;28;20387;-74
2023/03/12 05:28:19;;;;;;;;;;;;;;;;;;5073249;28;20007;-73
2023/03/12 05:30:45;;;;;;;;;;;;;;;;;;5073424;28;19944;-74
2023/03/12 05:33:11;;;;;;;;;;;;;;;;;;5073510;28;20361;-73
2023/03/12 05:35:37;;;;;;;;;;;;;;;;;;5073399;28;19952;-75
2023/03/12 05:38:03;;;;;;;;;;;;;;;;;;5073408;28;19916;-73
2023/03/12 05:40:29;;;;;;;;;;;;;;;;;;5072708;28;19924;-73
2023/03/12 05:42:55;;;;;;;;;;;;;;;;;;5073316;28;19916;-74
2023/03/12 05:45:20;;;;;;;;;;;;;;;;;;5073247;28;19912;-73
2023/03/12 05:47:46;;;;;;;;;;;;;;;;;;5073254;28;19912;-74
2023/03/12 05:50:15;;;;;;;;;;;;;;;;;;5057647;28;19909;-74
2023/03/12 05:52:41;;;;;;;;;;;;;;;;;;5052946;28;20262;-74
2023/03/12 05:55:06;;;;;;;;;;;;;;;;;;5051910;28;19912;-72
2023/03/12 05:57:32;;;;;;;;;;;;;;;;;;5053050;28;19909;-74
2023/03/12 05:59:58;;;;;;;;;;;;;;;;;;5052617;28;20003;-74
2023/03/12 06:02:24;;;;;;;;;;;;;;;;;;5053117;28;19916;-73
2023/03/12 06:04:50;;;;;;;;;;;;;;;;;;5052725;28;19912;-73
2023/03/12 06:07:16;;;;;;;;;;;;;;;;;;5054737;28;19958;-74
2023/03/12 06:09:42;;;;;;;;;;;;;;;;;;5056665;28;19912;-73
2023/03/12 06:12:08;;;;;;;;;;;;;;;;;;5057284;28;20284;-74
2023/03/12 06:14:34;;;;;;;;;;;;;;;;;;5056913;28;20476;-74
2023/03/12 06:17:00;;;;;;;;;;;;;;;;;;5056681;28;19944;-73
2023/03/12 06:19:26;;;;;;;;;;;;;;;;;;5056496;28;20333;-74
2023/03/12 06:21:52;;;;;;;;;;;;;;;;;;5056853;28;20327;-74
2023/03/12 06:24:17;;;;;;;;;;;;;;;;;;5056708;28;19920;-75
2023/03/12 06:26:43;;;;;;;;;;;;;;;;;;5056798;28;19909;-73
2023/03/12 06:29:09;;;;;;;;;;;;;;;;;;5056185;28;19908;-74
2023/03/12 06:31:35;;;;;;;;;;;;;;;;;;5056799;28;19908;-74
2023/03/12 06:34:01;;;;;;;;;;;;;;;;;;5056581;28;20327;-74
2023/03/12 06:36:27;;;;;;;;;;;;;;;;;;5056638;28;19938;-73
2023/03/12 06:38:53;;;;;;;;;;;;;;;;;;5056044;28;20319;-74
2023/03/12 06:41:19;;;;;;;;;;;;;;;;;;5056219;28;19909;-72
2023/03/12 06:43:45;;;;;;;;;;;;;;;;;;5056421;28;19908;-73
2023/03/12 06:46:11;;;;;;;;;;;;;;;;;;5056398;28;20011;-74
2023/03/12 06:48:40;;;;;;;;;;;;;;;;;;5056189;28;19919;-74
2023/03/12 06:51:06;;;;;;;;;;;;;;;;;;5056206;28;20359;-75
2023/03/12 06:53:32;;;;;;;;;;;;;;;;;;5056367;28;19963;-73
2023/03/12 06:55:57;;;;;;;;;;;;;;;;;;5054932;28;19916;-73
2023/03/12 06:58:23;;;;;;;;;;;;;;;;;;5056187;28;20199;-72
2023/03/12 07:00:49;;;;;;;;;;;;;;;;;;5055649;28;19915;-74
2023/03/12 07:03:15;;;;;;;;;;;;;;;;;;5054738;28;19909;-74
2023/03/12 07:05:41;;;;;;;;;;;;;;;;;;5056263;28;19920;-73
2023/03/12 07:08:07;;;;;;;;;;;;;;;;;;5055922;28;20380;-74
2023/03/12 07:10:33;;;;;;;;;;;;;;;;;;5055642;28;19954;-74
2023/03/12 07:12:59;;;;;;;;;;;;;;;;;;5055994;28;19909;-74
2023/03/12 07:15:25;;;;;;;;;;;;;;;;;;5054495;28;20292;-73
2023/03/12 07:17:51;;;;;;;;;;;;;;;;;;5055730;28;19913;-74
2023/03/12 07:20:17;;;;;;;;;;;;;;;;;;5066472;28;19912;-74
2023/03/12 07:22:43;;;;;;;;;;;;;;;;;;5074505;28;19977;-75
2023/03/12 07:25:09;;;;;;;;;;;;;;;;;;5075622;28;20361;-73
2023/03/12 07:27:35;;;;;;;;;;;;;;;;;;5074314;28;20399;-75
2023/03/12 07:30:01;;;;;;;;;;;;;;;;;;5075263;28;19908;-72
2023/03/12 07:32:29;;;;;;;;;;;;;;;;;;5075518;28;19908;-73
2023/03/12 07:34:55;;;;;;;;;;;;;;;;;;5075511;28;20003;-73
2023/03/12 07:37:21;;;;;;;;;;;;;;;;;;5075445;28;20299;-74
2023/03/12 07:39:51;;;;;;;;;;;;;;;;;;5074794;28;20015;-74
2023/03/12 07:42:16;;;;;;;;;;;;;;;;;;5074061;28;19918;-74
2023/03/12 07:44:42;;;;;;;;;;;;;;;;;;5075317;28;19912;-73
2023/03/12 07:47:08;;;;;;;;;;;;;;;;;;5075260;28;20094;-73
2023/03/12 07:49:34;;;;;;;;;;;;;;;;;;5074945;28;20270;-74
2023/03/12 07:52:00;;;;;;;;;;;;;;;;;;5075164;28;20365;-74
2023/03/12 07:54:29;;;;;;;;;;;;;;;;;;5075168;28;20327;-75
2023/03/12 07:56:55;;;;;;;;;;;;;;;;;;5075063;28;19968;-75
2023/03/12 07:59:21;;;;;;;;;;;;;;;;;;5073471;28;19916;-74
2023/03/12 08:01:47;;;;;;;;;;;;;;;;;;5074990;28;19912;-75
2023/03/12 08:04:13;;;;;;;;;;;;;;;;;;5074722;28;19961;-74
2023/03/12 08:06:41;;;;;;;;;;;;;;;;;;5074966;28;19962;-75
2023/03/12 08:09:07;;;;;;;;;;;;;;;;;;5073289;28;19920;-74
2023/03/12 08:11:33;;;;;;;;;;;;;;;;;;5074810;28;19908;-76
2023/03/12 08:13:59;;;;;;;;;;;;;;;;;;5074873;28;20007;-75
2023/03/12 08:16:25;;;;;;;;;;;;;;;;;;5074503;28;19955;-74
2023/03/12 08:18:51;;;;;;;;;;;;;;;;;;5074675;28;19908;-74
2023/03/12 08:21:17;;;;;;;;;;;;;;;;;;5074306;28;19912;-75
2023/03/12 08:23:43;;;;;;;;;;;;;;;;;;5074425;28;19912;-74
2023/03/12 08:26:08;;;;;;;;;;;;;;;;;;5074457;28;19915;-75
2023/03/12 08:28:34;;;;;;;;;;;;;;;;;;5074288;28;19908;-73
2023/03/12 08:31:01;;;;;;;;;;;;;;;;;;5056040;28;19909;-75
2023/03/12 08:33:27;;;;;;;;;;;;;;;;;;5054377;28;19913;-74
2023/03/12 08:35:53;;;;;;;;;;;;;;;;;;5054334;28;19916;-74
2023/03/12 08:38:19;;;;;;;;;;;;;;;;;;5054326;28;19910;-75
2023/03/12 08:40:44;;;;;;;;;;;;;;;;;;5052316;28;20013;-75
2023/03/12 08:43:10;;;;;;;;;;;;;;;;;;5054236;28;19909;-75
2023/03/12 08:45:36;;;;;;;;;;;;;;;;;;5054011;28;20168;-74
2023/03/12 08:48:02;;;;;;;;;;;;;;;;;;5054280;28;20328;-75
2023/03/12 08:50:30;;;;;;;;;;;;;;;;;;5065538;28;19923;-75
2023/03/12 08:52:56;;;;;;;;;;;;;;;;;;5073670;28;19958;-74
2023/03/12 08:55:22;;;;;;;;;;;;;;;;;;5073968;28;20327;-75
2023/03/12 08:57:48;;;;;;;;;;;;;;;;;;5073873;28;19962;-73
2023/03/12 09:00:15;;;;;;;;;;;;;;;;;;5073466;28;20346;-73
2023/03/12 09:02:41;;;;;;;;;;;;;;;;;;5073767;28;19908;-74
2023/03/12 09:05:07;;;;;;;;;;;;;;;;;;5073501;28;19923;-76
2023/03/12 09:07:33;;;;;;;;;;;;;;;;;;5073718;28;19995;-75
2023/03/12 09:09:58;;;;;;;;;;;;;;;;;;5073390;28;20431;-75
2023/03/12 09:12:24;;;;;;;;;;;;;;;;;;5073745;28;20281;-76
2023/03/12 09:14:50;;;;;;;;;;;;;;;;;;5073615;28;20296;-74
2023/03/12 09:17:16;;;;;;;;;;;;;;;;;;5073348;28;20422;-74
2023/03/12 09:19:42;;;;;;;;;;;;;;;;;;5073264;28;20050;-74
2023/03/12 09:22:08;;;;;;;;;;;;;;;;;;5073563;28;19962;-74
2023/03/12 09:24:34;;;;;;;;;;;;;;;;;;5073512;28;19916;-75
2023/03/12 09:27:00;;;;;;;;;;;;;;;;;;5073492;28;19908;-73
2023/03/12 09:29:26;;;;;;;;;;;;;;;;;;5073250;28;19909;-73
2023/03/12 09:31:52;;;;;;;;;;;;;;;;;;5073402;28;19908;-74
2023/03/12 09:34:18;;;;;;;;;;;;;;;;;;5072123;28;19909;-74
2023/03/12 09:36:44;;;;;;;;;;;;;;;;;;5073345;28;19958;-75
2023/03/12 09:39:10;;;;;;;;;;;;;;;;;;5073090;28;19925;-74
2023/03/12 09:41:37;;;;;;;;;;;;;;;;;;5053111;28;19931;-74
2023/03/12 09:44:03;;;;;;;;;;;;;;;;;;5053157;28;19913;-75
2023/03/12 09:46:29;;;;;;;;;;;;;;;;;;5053254;28;20266;-74
2023/03/12 09:48:55;;;;;;;;;;;;;;;;;;5053153;28;20361;-75
2023/03/12 09:51:21;;;;;;;;;;;;;;;;;;5052701;28;19908;-74
2023/03/12 09:53:47;;;;;;;;;;;;;;;;;;5051882;28;19920;-74
2023/03/12 09:56:13;;;;;;;;;;;;;;;;;;5053115;28;20262;-74
2023/03/12 09:58:41;;;;;;;;;;;;;;;;;;5053125;28;19909;-75
2023/03/12 10:01:07;;;;;;;;;;;;;;;;;;5051340;28;20309;-75
2023/03/12 10:03:33;;;;;;;;;;;;;;;;;;5053127;28;20003;-74
2023/03/12 10:06:00;;;;;;;;;;;;;;;;;;5051687;28;20003;-73
2023/03/12 10:08:26;;;;;;;;;;;;;;;;;;5053144;28;19913;-75
2023/03/12 10:10:52;;;;;;;;;;;;;;;;;;5052583;28;19909;-74
2023/03/12 10:13:18;;;;;;;;;;;;;;;;;;5052959;28;20376;-74
2023/03/12 10:15:44;;;;;;;;;;;;;;;;;;5052856;28;19916;-74
2023/03/12 10:18:10;;;;;;;;;;;;;;;;;;5052949;28;19909;-73
2023/03/12 10:20:35;;;;;;;;;;;;;;;;;;5052425;28;20400;-73
2023/03/12 10:23:02;;;;;;;;;;;;;;;;;;5052699;28;20296;-74
2023/03/12 10:25:28;;;;;;;;;;;;;;;;;;5052822;28;19978;-74
2023/03/12 10:27:54;;;;;;;;;;;;;;;;;;5052739;28;19909;-75
2023/03/12 10:30:19;;;;;;;;;;;;;;;;;;5051190;28;20396;-73
2023/03/12 10:32:45;;;;;;;;;;;;;;;;;;5052884;28;19908;-74
2023/03/12 10:35:11;;;;;;;;;;;;;;;;;;5052787;28;19909;-74
2023/03/12 10:37:37;;;;;;;;;;;;;;;;;;5052833;28;20368;-74
2023/03/12 10:40:04;;;;;;;;;;;;;;;;;;5050811;28;20408;-74
2023/03/12 10:42:30;;;;;;;;;;;;;;;;;;5052794;28;19909;-76
2023/03/12 10:44:56;;;;;;;;;;;;;;;;;;5052593;28;20274;-74
2023/03/12 10:47:22;;;;;;;;;;;;;;;;;;5051391;28;20365;-75
2023/03/12 10:49:49;;;;;;;;;;;;;;;;;;5052511;28;19909;-75
2023/03/12 10:52:16;;;;;;;;;;;;;;;;;;5052489;28;19909;-75
2023/03/12 10:54:43;;;;;;;;;;;;;;;;;;5054969;28;20381;-75
2023/03/12 10:57:09;;;;;;;;;;;;;;;;;;5056153;28;19931;-75
2023/03/12 10:59:35;;;;;;;;;;;;;;;;;;5055970;28;20385;-76
2023/03/12 11:02:01;;;;;;;;;;;;;;;;;;5056055;28;19909;-75
2023/03/12 11:04:27;;;;;;;;;;;;;;;;;;5055877;28;19920;-74
2023/03/12 11:06:53;;;;;;;;;;;;;;;;;;5056063;28;19909;-75
2023/03/12 11:09:19;;;;;;;;;;;;;;;;;;5055924;28;19909;-75
2023/03/12 11:11:46;;;;;;;;;;;;;;;;;;5055566;28;19915;-74
2023/03/12 11:14:12;;;;;;;;;;;;;;;;;;5055913;28;19909;-75
2023/03/12 11:16:38;;;;;;;;;;;;;;;;;;5055715;28;19909;-75
2023/03/12 11:19:04;;;;;;;;;;;;;;;;;;5055811;28;19915;-74
2023/03/12 11:21:30;;;;;;;;;;;;;;;;;;5070903;28;19908;-74
2023/03/12 11:23:56;;;;;;;;;;;;;;;;;;5074436;28;20342;-73
2023/03/12 11:26:22;;;;;;;;;;;;;;;;;;5075328;28;19995;-73
2023/03/12 11:28:47;;;;;;;;;;;;;;;;;;5074134;28;19920;-74
2023/03/12 11:31:13;;;;;;;;;;;;;;;;;;5062048;28;19909;-75
2023/03/12 11:33:39;;;;;;;;;;;;;;;;;;5055506;28;19909;-74
2023/03/12 11:36:07;;;;;;;;;;;;;;;;;;5054197;28;19909;-74
2023/03/12 11:38:33;;;;;;;;;;;;;;;;;;5055208;28;19909;-73
2023/03/12 11:40:59;;;;;;;;;;;;;;;;;;5055034;28;19909;-74
2023/03/12 11:43:25;;;;;;;;;;;;;;;;;;5054067;28;19909;-73
2023/03/12 11:45:51;;;;;;;;;;;;;;;;;;5055267;28;19913;-74
2023/03/12 11:48:17;;;;;;;;;;;;;;;;;;5055209;28;19919;-75
2023/03/12 11:50:43;;;;;;;;;;;;;;;;;;5053621;28;19913;-75
2023/03/12 11:53:09;;;;;;;;;;;;;;;;;;5054895;28;20450;-75
2023/03/12 11:55:35;;;;;;;;;;;;;;;;;;5053825;28;20012;-74
2023/03/12 11:58:01;;;;;;;;;;;;;;;;;;5055088;28;19948;-72
2023/03/12 12:00:27;;;;;;;;;;;;;;;;;;5060263;28;19913;-76
2023/03/12 12:02:53;;;;;;;;;;;;;;;;;;5075256;28;19915;-75
2023/03/12 12:05:19;;;;;;;;;;;;;;;;;;5074616;28;19913;-75
2023/03/12 12:07:45;;;;;;;;;;;;;;;;;;5073690;28;19908;-74
2023/03/12 12:10:11;;;;;;;;;;;;;;;;;;5074603;28;20003;-75
2023/03/12 12:12:37;;;;;;;;;;;;;;;;;;5074656;28;20435;-74
2023/03/12 12:15:03;;;;;;;;;;;;;;;;;;5074774;28;19994;-72
2023/03/12 12:17:29;;;;;;;;;;;;;;;;;;5074621;28;19915;-74
2023/03/12 12:19:55;;;;;;;;;;;;;;;;;;5074511;28;19908;-74
2023/03/12 12:22:21;;;;;;;;;;;;;;;;;;5074594;28;19908;-74
2023/03/12 12:24:47;;;;;;;;;;;;;;;;;;5073056;28;20003;-75
2023/03/12 12:27:13;;;;;;;;;;;;;;;;;;5074466;28;19995;-74
2023/03/12 12:29:39;;;;;;;;;;;;;;;;;;5074442;28;19952;-75
2023/03/12 12:32:05;;;;;;;;;;;;;;;;;;5074016;28;20296;-75
2023/03/12 12:34:31;;;;;;;;;;;;;;;;;;5074381;28;19909;-74
2023/03/12 12:36:57;;;;;;;;;;;;;;;;;;5074428;28;19915;-74
2023/03/12 12:39:23;;;;;;;;;;;;;;;;;;5073997;28;19973;-74
2023/03/12 12:41:50;;;;;;;;;;;;;;;;;;5073787;28;19908;-74
2023/03/12 12:44:16;;;;;;;;;;;;;;;;;;5074070;28;19912;-73
2023/03/12 12:46:42;;;;;;;;;;;;;;;;;;5074290;28;19908;-73
2023/03/12 12:49:08;;;;;;;;;;;;;;;;;;5074040;28;19919;-74
2023/03/12 12:51:33;;;;;;;;;;;;;;;;;;5073571;28;19909;-74
2023/03/12 12:53:59;;;;;;;;;;;;;;;;;;5072717;28;19958;-74
2023/03/12 12:56:25;;;;;;;;;;;;;;;;;;5073904;28;20315;-74
2023/03/12 12:58:51;;;;;;;;;;;;;;;;;;5073879;28;19908;-74
2023/03/12 13:01:17;;;;;;;;;;;;;;;;;;5073589;28;19920;-74
2023/03/12 13:03:43;;;;;;;;;;;;;;;;;;5073666;28;19914;-73
2023/03/12 13:06:10;;;;;;;;;;;;;;;;;;5072481;28;20016;-73
2023/03/12 13:08:36;;;;;;;;;;;;;;;;;;5073703;28;19916;-73
2023/03/12 13:11:02;;;;;;;;;;;;;;;;;;5073357;28;19909;-73
2023/03/12 13:13:28;;;;;;;;;;;;;;;;;;5072419;28;19912;-74
2023/03/12 13:15:54;;;;;;;;;;;;;;;;;;5073260;28;19916;-74
2023/03/12 13:18:20;;;;;;;;;;;;;;;;;;5073225;28;19919;-75
2023/03/12 13:20:46;;;;;;;;;;;;;;;;;;5071933;28;19909;-75
2023/03/12 13:23:12;;;;;;;;;;;;;;;;;;5073627;28;20303;-73
2023/03/12 13:25:38;;;;;;;;;;;;;;;;;;5073446;28;20029;-74
2023/03/12 13:28:04;;;;;;;;;;;;;;;;;;5073346;28;19909;-74
2023/03/12 13:30:30;;;;;;;;;;;;;;;;;;5073212;28;19909;-75
2023/03/12 13:32:56;;;;;;;;;;;;;;;;;;5072153;28;19954;-73
2023/03/12 13:35:22;;;;;;;;;;;;;;;;;;5073681;28;19912;-73
2023/03/12 13:37:48;;;;;;;;;;;;;;;;;;5073522;28;20377;-73
2023/03/12 13:40:14;;;;;;;;;;;;;;;;;;5072722;28;19920;-74
2023/03/12 13:42:40;;;;;;;;;;;;;;;;;;5073270;28;19935;-74
2023/03/12 13:45:06;;;;;;;;;;;;;;;;;;5073333;28;19962;-74
2023/03/12 13:47:32;;;;;;;;;;;;;;;;;;5073394;28;19995;-73
2023/03/12 13:49:58;;;;;;;;;;;;;;;;;;5073315;28;20073;-73
2023/03/12 13:52:24;;;;;;;;;;;;;;;;;;5054704;28;20365;-74
2023/03/12 13:54:50;;;;;;;;;;;;;;;;;;5051858;28;19908;-74
2023/03/12 13:57:16;;;;;;;;;;;;;;;;;;5053079;28;19948;-74
2023/03/12 13:59:42;;;;;;;;;;;;;;;;;;5053112;28;19975;-73
2023/03/12 14:02:08;;;;;;;;;;;;;;;;;;5052716;28;19909;-74
2023/03/12 14:04:34;;;;;;;;;;;;;;;;;;5052843;28;20385;-73
2023/03/12 14:07:00;;;;;;;;;;;;;;;;;;5053023;28;19962;-73
2023/03/12 14:09:26;;;;;;;;;;;;;;;;;;5053064;28;19909;-74
2023/03/12 14:11:52;;;;;;;;;;;;;;;;;;5052501;28;19909;-73
2023/03/12 14:14:18;;;;;;;;;;;;;;;;;;5052980;28;20007;-73
2023/03/12 14:16:48;;;;;;;;;;;;;;;;;;5052745;28;19916;-74
2023/03/12 14:19:14;;;;;;;;;;;;;;;;;;5052992;28;19958;-74
2023/03/12 14:21:40;;;;;;;;;;;;;;;;;;5052803;28;19913;-74
2023/03/12 14:24:06;;;;;;;;;;;;;;;;;;5052773;28;19909;-74
2023/03/12 14:26:32;;;;;;;;;;;;;;;;;;5052863;28;19916;-74
2023/03/12 14:28:58;;;;;;;;;;;;;;;;;;5053606;28;19912;-75
2023/03/12 14:31:23;;;;;;;;;;;;;;;;;;5055113;28;19915;-74
2023/03/12 14:33:49;;;;;;;;;;;;;;;;;;5056682;28;19916;-74
2023/03/12 14:36:15;;;;;;;;;;;;;;;;;;5056593;28;19955;-73
2023/03/12 14:38:41;;;;;;;;;;;;;;;;;;5056335;28;20365;-74
2023/03/12 14:41:12;;;;;;;;;;;;;;;;;;5055921;28;19920;-73
2023/03/12 14:43:38;;;;;;;;;;;;;;;;;;5056571;28;19959;-74
2023/03/12 14:46:04;;;;;;;;;;;;;;;;;;5056350;28;19919;-73
2023/03/12 14:48:30;;;;;;;;;;;;;;;;;;5056414;28;19913;-72
2023/03/12 14:50:56;;;;;;;;;;;;;;;;;;5056059;28;20292;-74
2023/03/12 14:53:23;;;;;;;;;;;;;;;;;;5056268;28;19959;-74
2023/03/12 14:55:49;;;;;;;;;;;;;;;;;;5055037;28;20323;-73
2023/03/12 14:58:15;;;;;;;;;;;;;;;;;;5056166;28;19909;-74
2023/03/12 15:00:41;;;;;;;;;;;;;;;;;;5054651;28;20008;-73
2023/03/12 15:03:06;;;;;;;;;;;;;;;;;;5056074;28;19936;-74
2023/03/12 15:05:33;;;;;;;;;;;;;;;;;;5056027;28;19920;-72
2023/03/12 15:07:59;;;;;;;;;;;;;;;;;;5056061;28;19908;-73
2023/03/12 15:10:25;;;;;;;;;;;;;;;;;;5055962;28;19916;-73
2023/03/12 15:12:51;;;;;;;;;;;;;;;;;;5055446;28;20007;-73
2023/03/12 15:15:17;;;;;;;;;;;;;;;;;;5055785;28;19998;-74
2023/03/12 15:17:43;;;;;;;;;;;;;;;;;;5055908;28;19916;-73
2023/03/12 15:20:09;;;;;;;;;;;;;;;;;;5055736;28;19909;-73
2023/03/12 15:22:35;;;;;;;;;;;;;;;;;;5055339;28;20231;-73
2023/03/12 15:25:01;;;;;;;;;;;;;;;;;;5055701;28;19913;-73
2023/03/12 15:27:30;;;;;;;;;;;;;;;;;;5054239;28;19924;-73
2023/03/12 15:29:56;;;;;;;;;;;;;;;;;;5055690;28;19909;-75
2023/03/12 15:32:23;;;;;;;;;;;;;;;;;;5055052;28;19943;-74
2023/03/12 15:34:49;;;;;;;;;;;;;;;;;;5054335;28;19909;-74
2023/03/12 15:37:15;;;;;;;;;;;;;;;;;;5055464;28;20016;-73
2023/03/12 15:39:42;;;;;;;;;;;;;;;;;;5054552;28;19952;-74
2023/03/12 15:42:08;;;;;;;;;;;;;;;;;;5054998;28;19939;-73
2023/03/12 15:44:34;;;;;;;;;;;;;;;;;;5055254;28;19913;-73
2023/03/12 15:46:59;;;;;;;;;;;;;;;;;;5055404;28;19916;-74
2023/03/12 15:49:25;;;;;;;;;;;;;;;;;;5055200;28;19909;-74
2023/03/12 15:51:51;;;;;;;;;;;;;;;;;;5054990;28;19909;-74
2023/03/12 15:54:17;;;;;;;;;;;;;;;;;;5055124;28;19966;-74
2023/03/12 15:56:43;;;;;;;;;;;;;;;;;;5055112;28;20008;-74
2023/03/12 15:59:10;;;;;;;;;;;;;;;;;;5055150;28;19968;-75
2023/03/12 16:01:36;;;;;;;;;;;;;;;;;;5054663;28;19908;-72
2023/03/12 16:04:02;;;;;;;;;;;;;;;;;;5054830;28;20007;-74
2023/03/12 16:06:28;;;;;;;;;;;;;;;;;;5054856;28;19962;-75
2023/03/12 16:08:54;;;;;;;;;;;;;;;;;;5055033;28;19912;-74
2023/03/12 16:11:20;;;;;;;;;;;;;;;;;;5054495;28;20308;-73
2023/03/12 16:13:46;;;;;;;;;;;;;;;;;;5054808;28;20368;-74
2023/03/12 16:16:12;;;;;;;;;;;;;;;;;;5054629;28;20412;-73
2023/03/12 16:18:38;;;;;;;;;;;;;;;;;;5054655;28;20519;-73
2023/03/12 16:21:04;;;;;;;;;;;;;;;;;;5054416;28;19932;-74
2023/03/12 16:23:30;;;;;;;;;;;;;;;;;;5054485;28;19909;-74
2023/03/12 16:25:56;;;;;;;;;;;;;;;;;;5054493;28;20007;-75
2023/03/12 16:28:22;;;;;;;;;;;;;;;;;;5054265;28;20262;-74
2023/03/12 16:30:48;;;;;;;;;;;;;;;;;;5054400;28;19913;-74
2023/03/12 16:33:14;;;;;;;;;;;;;;;;;;5052931;28;19908;-73
2023/03/12 16:35:40;;;;;;;;;;;;;;;;;;5053068;28;19931;-73
2023/03/12 16:38:06;;;;;;;;;;;;;;;;;;5054287;28;19975;-75